Time;durP1;ratioP1;P1;durP2;ratioP2;P2;SDS_P1;SDS_P2;PMS_P1;PMS_P2;Temp;Humidity;BMP_temperature;BMP_pressure;BME280_temperature;BME280_humidity;BME280_pressure;Samples;Min_cycle;Max_cycle;Signal;HPM_P1;HPM_P2
2023/04/14 00:00:44;;;;;;;3.47;1.75;;;;;;;8.35;100.00;100021.81;5134757;28;20377;-69
2023/04/14 00:03:16;;;;;;;2.60;1.60;;;;;;;7.84;100.00;100026.19;5146070;28;20066;-70
2023/04/14 00:05:46;;;;;;;2.85;1.60;;;;;;;7.74;100.00;100032.56;5138587;28;20161;-73
2023/04/14 00:08:16;;;;;;;3.00;1.75;;;;;;;7.64;100.00;100038.97;5148300;28;20539;-71
2023/04/14 00:10:47;;;;;;;7.10;1.70;;;;;;;7.74;100.00;100040.38;5131502;28;20019;-72
2023/04/14 00:13:17;;;;;;;2.83;1.90;;;;;;;7.83;100.00;100048.72;5135327;28;20089;-71
2023/04/14 00:15:47;;;;;;;3.03;1.70;;;;;;;7.85;100.00;100054.72;5130313;28;20023;-72
2023/04/14 00:18:18;;;;;;;3.10;1.63;;;;;;;7.87;100.00;100057.28;5131832;28;20045;-73
2023/04/14 00:20:48;;;;;;;5.07;1.70;;;;;;;7.86;100.00;100048.63;5137132;28;20225;-72
2023/04/14 00:23:19;;;;;;;4.03;1.65;;;;;;;7.80;100.00;100056.63;5135098;28;20060;-73
2023/04/14 00:25:49;;;;;;;3.15;1.50;;;;;;;7.82;100.00;100054.81;5134552;28;20018;-72
2023/04/14 00:28:20;;;;;;;3.72;1.92;;;;;;;7.92;100.00;100056.25;5149374;28;20093;-71
2023/04/14 00:30:50;;;;;;;7.25;1.83;;;;;;;7.86;100.00;100056.41;5129868;28;20389;-72
2023/04/14 00:33:20;;;;;;;2.95;1.55;;;;;;;7.82;100.00;100054.81;5149168;28;20460;-70
2023/04/14 00:35:51;;;;;;;6.70;1.77;;;;;;;7.77;100.00;100061.94;5117277;28;20118;-72
2023/04/14 00:38:21;;;;;;;3.58;1.50;;;;;;;7.80;100.00;100058.38;5145667;28;20057;-72
2023/04/14 00:40:52;;;;;;;4.75;1.60;;;;;;;7.84;100.00;100063.44;5126672;28;20031;-72
2023/04/14 00:43:22;;;;;;;6.80;2.00;;;;;;;8.05;100.00;100057.50;5151192;28;20026;-69
2023/04/14 00:45:53;;;;;;;6.63;1.70;;;;;;;8.13;100.00;100050.31;5133300;28;20026;-74
2023/04/14 00:48:23;;;;;;;6.75;1.92;;;;;;;8.11;100.00;100057.31;5145900;28;20097;-72
2023/04/14 00:50:54;;;;;;;3.90;1.58;;;;;;;8.10;100.00;100040.00;5146310;28;20037;-71
2023/04/14 00:53:26;;;;;;;5.93;2.13;;;;;;;8.08;100.00;100051.38;5151988;28;20034;-71
2023/04/14 00:55:57;;;;;;;5.70;2.47;;;;;;;8.03;100.00;100056.72;5150798;28;20084;-73
2023/04/14 00:58:29;;;;;;;4.65;2.20;;;;;;;8.05;100.00;100061.88;5132644;28;20018;-71
2023/04/14 01:00:59;;;;;;;5.65;2.10;;;;;;;8.05;100.00;100057.50;5147031;28;20050;-72
2023/04/14 01:03:30;;;;;;;13.30;2.25;;;;;;;8.06;100.00;100059.22;5134926;28;20124;-73
2023/04/14 01:06:00;;;;;;;3.63;2.08;;;;;;;8.03;100.00;100063.69;5147869;28;20050;-73
2023/04/14 01:08:30;;;;;;;5.60;2.42;;;;;;;7.94;100.00;100059.63;5150863;28;20022;-71
2023/04/14 01:11:30;;;;;;;7.28;2.33;;;;;;;7.85;100.00;100059.09;5166684;23;20046;-72
2023/04/14 01:14:43;;;;;;;10.20;2.63;;;;;;;7.73;100.00;100065.50;5127698;28;20035;-72
2023/04/14 01:17:26;;;;;;;4.93;2.05;;;;;;;7.77;100.00;100061.94;5141889;28;20046;-70
2023/04/14 01:20:06;;;;;;;8.57;2.65;;;;;;;7.72;100.00;100063.81;5150737;28;20038;-72
2023/04/14 01:22:47;;;;;;;7.18;2.63;;;;;;;7.76;100.00;100062.84;5157565;28;20033;-72
2023/04/14 01:25:47;;;;;;;6.38;2.63;;;;;;;7.78;100.00;100068.84;5155331;28;20504;-70
2023/04/14 01:28:54;;;;;;;5.45;2.00;;;;;;;7.78;100.00;100063.63;5160868;28;20423;-71
2023/04/14 01:31:30;;;;;;;3.88;2.30;;;;;;;7.76;100.00;100062.84;5160294;28;20388;-72
2023/04/14 01:34:15;;;;;;;3.40;1.90;;;;;;;7.73;100.00;100057.72;5164869;28;20056;-72
2023/04/14 01:37:10;;;;;;;3.97;2.15;;;;;;;7.70;100.00;100064.78;5152738;28;20061;-71
2023/04/14 01:39:52;;;;;;;6.30;2.70;;;;;;;7.66;100.00;100065.78;5159781;28;20069;-72
2023/04/14 01:42:29;;;;;;;3.78;2.15;;;;;;;7.65;100.00;100067.53;5150224;28;20298;-73
2023/04/14 01:45:05;;;;;;;5.85;2.33;;;;;;;7.44;100.00;100075.16;5152897;28;20038;-72
2023/04/14 01:47:37;;;;;;;4.63;2.13;;;;;;;7.39;100.00;100077.88;5136759;28;20061;-72
2023/04/14 01:50:10;;;;;;;5.90;2.15;;;;;;;7.43;100.00;100081.25;5141365;28;20470;-70
2023/04/14 01:52:43;;;;;;;5.22;2.20;;;;;;;7.34;100.00;100071.97;5145288;28;20034;-72
2023/04/14 01:55:17;;;;;;;6.60;2.40;;;;;;;7.27;100.00;100085.19;5150518;28;20587;-71
2023/04/14 01:57:52;;;;;;;4.68;2.08;;;;;;;7.06;100.00;100082.38;5151480;28;20026;-71
2023/04/14 02:00:23;;;;;;;4.03;1.50;;;;;;;6.93;100.00;100084.50;5151835;28;20370;-70
2023/04/14 02:02:55;;;;;;;7.60;1.88;;;;;;;6.94;100.00;100080.16;5152786;28;20062;-71
2023/04/14 02:05:26;;;;;;;5.13;1.90;;;;;;;6.91;100.00;100086.28;5154883;28;20029;-71
2023/04/14 02:07:59;;;;;;;5.88;2.00;;;;;;;7.00;100.00;100080.84;5152045;28;20428;-71
2023/04/14 02:10:29;;;;;;;5.85;1.77;;;;;;;6.95;100.00;100087.06;5145722;28;20507;-71
2023/04/14 02:13:02;;;;;;;3.40;1.83;;;;;;;6.90;100.00;100089.78;5148768;28;20070;-72
2023/04/14 02:15:34;;;;;;;3.47;1.80;;;;;;;6.85;100.00;100090.78;5144567;28;20123;-73
2023/04/14 02:18:05;;;;;;;2.28;1.80;;;;;;;6.80;100.00;100092.69;5145506;28;20061;-69
2023/04/14 02:20:42;;;;;;;6.18;1.92;;;;;;;6.76;100.00;100093.66;5148463;28;20133;-71
2023/04/14 02:23:13;;;;;;;4.90;2.03;;;;;;;6.67;100.00;100086.13;5154086;28;20069;-71
2023/04/14 02:26:11;;;;;;;4.60;2.03;;;;;;;6.57;100.00;100085.53;5149141;28;20674;-71
2023/04/14 02:28:49;;;;;;;4.88;1.90;;;;;;;6.61;100.00;100086.31;5119843;28;20465;-71
2023/04/14 02:31:24;;;;;;;4.15;2.25;;;;;;;6.68;100.00;100088.69;5161214;28;20092;-71
2023/04/14 02:33:56;;;;;;;6.43;1.92;;;;;;;6.75;100.00;100084.19;5158672;28;20029;-71
2023/04/14 02:36:38;;;;;;;5.53;2.10;;;;;;;6.79;100.00;100084.03;5151989;28;20113;-71
2023/04/14 02:39:22;;;;;;;5.85;1.95;;;;;;;7.02;100.00;100078.19;5155233;28;20318;-71
2023/04/14 02:42:01;;;;;;;3.65;1.70;;;;;;;6.84;100.00;100082.19;5141270;28;20073;-70
2023/04/14 02:44:34;;;;;;;3.22;1.60;;;;;;;6.83;100.00;100084.81;5156225;28;20112;-71
2023/04/14 02:47:09;;;;;;;2.97;1.60;;;;;;;6.78;100.00;100094.47;5160079;28;20499;-71
2023/04/14 02:49:43;;;;;;;3.05;2.10;;;;;;;6.61;100.00;100102.72;5138517;28;20073;-71
2023/04/14 02:52:16;;;;;;;3.60;1.90;;;;;;;6.52;100.00;100091.72;5154462;28;20030;-72
2023/04/14 02:54:48;;;;;;;4.78;1.85;;;;;;;6.56;100.00;100098.56;5152734;28;20050;-72
2023/04/14 02:57:20;;;;;;;4.47;1.80;;;;;;;6.41;100.00;100098.97;5158399;28;20030;-72
2023/04/14 02:59:51;;;;;;;4.68;1.80;;;;;;;6.41;100.00;100101.56;5163410;28;20061;-71
2023/04/14 03:02:23;;;;;;;4.70;2.10;;;;;;;6.42;100.00;100092.88;5152710;28;20033;-71
2023/04/14 03:04:54;;;;;;;3.22;2.08;;;;;;;6.56;100.00;100090.78;5160828;28;20033;-70
2023/04/14 03:07:26;;;;;;;3.00;1.73;;;;;;;6.71;100.00;100090.34;5138516;28;20113;-71
2023/04/14 03:09:58;;;;;;;6.50;2.20;;;;;;;6.80;100.00;100084.91;5154160;28;20022;-72
2023/04/14 03:12:28;;;;;;;7.57;2.30;;;;;;;6.72;100.00;100094.63;5154951;28;20097;-70
2023/04/14 03:15:00;;;;;;;5.85;2.55;;;;;;;6.76;100.00;100096.28;5154628;28;20027;-72
2023/04/14 03:17:32;;;;;;;4.45;2.17;;;;;;;6.75;100.00;100100.59;5153721;28;20283;-72
2023/04/14 03:20:02;;;;;;;3.72;1.77;;;;;;;6.77;100.00;100096.22;5134413;28;20038;-71
2023/04/14 03:22:39;;;;;;;5.90;2.28;;;;;;;6.99;100.00;100101.66;5153174;28;20031;-71
2023/04/14 03:25:11;;;;;;;6.80;2.28;;;;;;;6.85;100.00;100098.59;5133788;28;20033;-71
2023/04/14 03:27:43;;;;;;;4.32;2.10;;;;;;;6.80;100.00;100097.88;5155718;28;20084;-71
2023/04/14 03:30:15;;;;;;;5.43;2.30;;;;;;;6.81;100.00;100096.97;5151098;28;20437;-71
2023/04/14 03:32:48;;;;;;;3.90;2.15;;;;;;;6.91;100.00;100096.69;5151497;28;20146;-71
2023/04/14 03:35:21;;;;;;;6.47;2.20;;;;;;;6.79;100.00;100091.81;5162106;28;20034;-70
2023/04/14 03:37:58;;;;;;;4.40;1.77;;;;;;;6.66;100.00;100089.63;5167765;28;20034;-72
2023/04/14 03:40:30;;;;;;;3.13;1.98;;;;;;;6.65;100.00;100087.91;5158470;28;20026;-71
2023/04/14 03:43:02;;;;;;;3.60;1.70;;;;;;;6.84;100.00;100089.09;5157615;28;20540;-71
2023/04/14 03:45:32;;;;;;;4.55;1.70;;;;;;;6.69;100.00;100092.13;5154792;28;20440;-72
2023/04/14 03:48:05;;;;;;;5.32;2.20;;;;;;;6.79;100.00;100090.97;5154211;28;20022;-71
2023/04/14 03:50:41;;;;;;;5.82;2.45;;;;;;;6.89;100.00;100090.69;5161525;28;20145;-71
2023/04/14 03:53:15;;;;;;;3.80;2.25;;;;;;;6.78;100.00;100094.47;5160478;28;20396;-70
2023/04/14 03:55:48;;;;;;;6.85;2.47;;;;;;;6.79;100.00;100085.78;5163461;28;20044;-71
2023/04/14 03:58:20;;;;;;;9.73;2.70;;;;;;;6.82;100.00;100089.16;5163433;28;20037;-72
2023/04/14 04:00:52;;;;;;;7.15;2.78;;;;;;;6.87;100.00;100083.81;5153628;28;20094;-72
2023/04/14 04:03:24;;;;;;;5.00;2.85;;;;;;;6.82;100.00;100083.09;5151637;28;20085;-72
2023/04/14 04:05:55;;;;;;;8.02;3.08;;;;;;;6.94;100.00;100077.56;5150446;28;20109;-72
2023/04/14 04:08:26;;;;;;;8.20;3.03;;;;;;;7.00;100.00;100079.97;5154451;28;20121;-70
2023/04/14 04:10:59;;;;;;;5.75;2.92;;;;;;;6.94;100.00;100077.56;5155869;28;20039;-71
2023/04/14 04:13:33;;;;;;;8.00;3.10;;;;;;;6.94;100.00;100080.16;5137103;28;20022;-71
2023/04/14 04:16:06;;;;;;;5.13;2.78;;;;;;;7.01;100.00;100076.47;5156889;28;20365;-71
2023/04/14 04:18:38;;;;;;;5.55;2.70;;;;;;;7.00;100.00;100080.84;5138810;28;20231;-71
2023/04/14 04:21:09;;;;;;;5.55;2.72;;;;;;;6.96;100.00;100078.38;5158702;28;20124;-72
2023/04/14 04:23:42;;;;;;;7.35;3.08;;;;;;;6.89;100.00;100087.22;5158012;28;20470;-71
2023/04/14 04:26:12;;;;;;;6.68;3.00;;;;;;;6.59;100.00;100086.34;5157335;28;20085;-72
2023/04/14 04:28:44;;;;;;;4.97;2.58;;;;;;;6.63;100.00;100092.31;5155275;28;20566;-72
2023/04/14 04:31:15;;;;;;;5.47;2.70;;;;;;;6.46;100.00;100087.53;5159114;28;20025;-71
2023/04/14 04:33:47;;;;;;;4.38;2.45;;;;;;;6.53;100.00;100091.69;5156241;28;20473;-72
2023/04/14 04:36:18;;;;;;;6.00;2.88;;;;;;;6.51;100.00;100090.03;5150887;28;20077;-72
2023/04/14 04:38:49;;;;;;;4.82;2.85;;;;;;;6.58;100.00;100086.38;5161981;28;20031;-70
2023/04/14 04:41:24;;;;;;;5.78;2.90;;;;;;;6.54;100.00;100098.59;5162596;28;20030;-72
2023/04/14 04:43:55;;;;;;;7.22;3.00;;;;;;;6.36;100.00;100104.28;5162379;28;20033;-70
2023/04/14 04:46:29;;;;;;;5.65;2.83;;;;;;;6.36;100.00;100101.69;5161420;28;20034;-72
2023/04/14 04:48:59;;;;;;;7.47;3.00;;;;;;;6.40;100.00;100105.88;5135967;28;20077;-72
2023/04/14 04:51:30;;;;;;;6.13;3.00;;;;;;;6.36;100.00;100113.78;5160188;28;20428;-70
2023/04/14 04:54:00;;;;;;;5.43;2.65;;;;;;;6.48;100.00;100114.34;5158751;28;20031;-72
2023/04/14 04:56:31;;;;;;;3.85;2.10;;;;;;;6.51;100.00;100113.38;5162291;28;20224;-72
2023/04/14 04:59:02;;;;;;;5.68;2.20;;;;;;;6.46;100.00;100113.50;5133935;28;20489;-72
2023/04/14 05:01:32;;;;;;;3.60;2.10;;;;;;;6.36;100.00;100112.06;5158053;28;20035;-72
2023/04/14 05:04:03;;;;;;;3.78;2.00;;;;;;;6.26;100.00;100114.94;5156356;28;20023;-72
2023/04/14 05:06:34;;;;;;;6.28;2.70;;;;;;;6.17;100.00;100126.41;5164227;28;20026;-71
2023/04/14 05:09:04;;;;;;;5.45;2.00;;;;;;;6.24;100.00;100121.91;5162185;28;20033;-71
2023/04/14 05:11:35;;;;;;;4.18;2.20;;;;;;;6.22;100.00;100113.31;5164118;28;20029;-72
2023/04/14 05:14:05;;;;;;;5.63;2.80;;;;;;;6.21;100.00;100112.44;5160665;28;20088;-72
2023/04/14 05:16:35;;;;;;;4.68;2.35;;;;;;;6.31;100.00;100113.94;5155123;28;20424;-71
2023/04/14 05:19:06;;;;;;;6.70;2.60;;;;;;;6.39;100.00;100113.72;5138406;28;20113;-72
2023/04/14 05:21:36;;;;;;;4.75;2.53;;;;;;;6.45;100.00;100113.56;5168950;28;20298;-71
2023/04/14 05:24:09;;;;;;;4.53;2.88;;;;;;;6.53;100.00;100101.22;5157471;28;20436;-72
2023/04/14 05:26:40;;;;;;;8.43;2.90;;;;;;;6.66;100.00;100108.66;5158172;28;20021;-72
2023/04/14 05:29:10;;;;;;;5.35;2.80;;;;;;;6.82;100.00;100099.56;5160358;28;20041;-72
2023/04/14 05:31:40;;;;;;;7.43;3.60;;;;;;;6.79;100.00;100107.41;5154180;28;20515;-73
2023/04/14 05:34:11;;;;;;;5.32;2.50;;;;;;;6.71;100.00;100111.09;5154181;28;20368;-72
2023/04/14 05:36:41;;;;;;;7.68;2.78;;;;;;;6.96;100.00;100115.56;5161743;28;20113;-73
2023/04/14 05:39:12;;;;;;;5.05;2.83;;;;;;;7.08;100.00;100112.63;5162449;28;21271;-72
2023/04/14 05:41:42;;;;;;;5.00;2.75;;;;;;;7.25;100.00;100118.19;5164567;28;20033;-71
2023/04/14 05:44:13;;;;;;;4.53;2.97;;;;;;;7.28;100.00;100106.84;5159176;28;20603;-72
2023/04/14 05:46:43;;;;;;;6.07;3.35;;;;;;;7.46;100.00;100118.41;5146282;28;20439;-72
2023/04/14 05:49:13;;;;;;;8.63;3.45;;;;;;;7.49;100.00;100125.28;5160382;28;20037;-72
2023/04/14 05:51:43;;;;;;;5.35;3.00;;;;;;;7.42;100.00;100127.19;5158866;28;20436;-72
2023/04/14 05:54:14;;;;;;;6.85;3.00;;;;;;;7.45;100.00;100116.69;5148408;28;20042;-73
2023/04/14 05:56:44;;;;;;;11.20;3.50;;;;;;;7.46;100.00;100117.53;5152400;28;20029;-73
2023/04/14 05:59:16;;;;;;;6.30;3.10;;;;;;;7.48;100.00;100116.59;5165271;28;20022;-72
2023/04/14 06:01:46;;;;;;;5.22;2.97;;;;;;;7.40;100.00;100123.81;5157620;28;20033;-72
2023/04/14 06:04:16;;;;;;;10.80;3.25;;;;;;;7.34;100.00;100126.56;5159130;28;20023;-72
2023/04/14 06:06:47;;;;;;;5.72;2.90;;;;;;;7.39;100.00;100127.25;5155802;28;20034;-72
2023/04/14 06:09:17;;;;;;;4.40;2.65;;;;;;;7.59;100.00;100122.34;5147087;28;20077;-72
2023/04/14 06:11:47;;;;;;;4.70;2.70;;;;;;;7.86;100.00;100118.84;5165706;28;20435;-72
2023/04/14 06:14:17;;;;;;;5.75;2.72;;;;;;;8.00;100.00;100121.00;5154997;28;20038;-71
2023/04/14 06:16:49;;;;;;;4.93;2.78;;;;;;;7.75;100.00;100123.56;5160808;28;20496;-70
2023/04/14 06:19:20;;;;;;;4.28;2.67;;;;;;;7.78;100.00;100115.66;5161242;28;20030;-71
2023/04/14 06:21:50;;;;;;;6.47;2.75;;;;;;;7.96;100.00;100116.81;5154218;28;20061;-72
2023/04/14 06:24:21;;;;;;;5.75;2.80;;;;;;;8.13;100.00;100117.97;5158381;28;20536;-73
2023/04/14 06:26:51;;;;;;;7.28;2.95;;;;;;;8.20;100.00;100114.28;5143451;28;20121;-71
2023/04/14 06:29:21;;;;;;;5.25;3.05;;;;;;;8.25;100.00;100101.97;5166959;28;20077;-71
2023/04/14 06:31:53;;;;;;;5.30;3.05;;;;;;;8.30;100.00;100113.09;5158369;28;20029;-71
2023/04/14 06:34:23;;;;;;;6.82;3.60;;;;;;;8.48;100.00;100098.56;5157839;28;20109;-72
2023/04/14 06:36:55;;;;;;;7.18;3.50;;;;;;;8.79;100.00;100094.00;5159713;28;20117;-71
2023/04/14 06:39:26;;;;;;;5.95;3.25;;;;;;;8.96;99.21;100102.91;5159075;28;20026;-70
2023/04/14 06:41:57;;;;;;;7.60;2.80;;;;;;;9.06;97.86;100095.59;5164016;28;20045;-71
2023/04/14 06:44:27;;;;;;;7.65;3.28;;;;;;;9.12;97.49;100098.84;5160128;28;20031;-71
2023/04/14 06:46:58;;;;;;;5.00;3.10;;;;;;;9.01;96.30;100094.91;5158020;28;20555;-74
2023/04/14 06:49:28;;;;;;;6.45;3.15;;;;;;;8.87;97.73;100103.22;5158648;28;20027;-72
2023/04/14 06:51:58;;;;;;;6.93;3.13;;;;;;;9.09;98.21;100096.31;5166237;28;20069;-73
2023/04/14 06:54:30;;;;;;;6.65;3.10;;;;;;;9.28;96.06;100094.75;5160871;28;20061;-73
2023/04/14 06:57:01;;;;;;;7.78;3.28;;;;;;;9.31;95.42;100092.00;5153980;28;20380;-73
2023/04/14 06:59:31;;;;;;;6.43;3.03;;;;;;;9.26;93.60;100096.53;5159694;28;20045;-73
2023/04/14 07:02:02;;;;;;;6.38;3.05;;;;;;;9.21;95.14;100094.13;5158759;28;20031;-73
2023/04/14 07:04:35;;;;;;;6.88;3.42;;;;;;;9.22;93.03;100102.78;5163436;28;20395;-74
2023/04/14 07:07:05;;;;;;;8.07;3.58;;;;;;;9.26;93.95;100105.22;5155282;28;20030;-73
2023/04/14 07:09:35;;;;;;;7.18;3.85;;;;;;;9.32;93.91;100101.53;5225694;22;20027;-72
2023/04/14 07:12:11;;;;;;;7.25;3.47;;;;;;;9.06;93.91;100103.41;5196850;28;20344;-72
2023/04/14 07:14:42;;;;;;;10.23;3.65;;;;;;;9.05;95.14;100101.72;5183758;28;20028;-71
2023/04/14 07:17:12;;;;;;;6.65;3.33;;;;;;;8.90;96.97;100103.09;5194570;28;20040;-72
2023/04/14 07:19:42;;;;;;;7.65;3.85;;;;;;;9.17;97.55;100105.56;5195283;28;20029;-73
2023/04/14 07:22:12;;;;;;;7.25;3.88;;;;;;;9.50;96.38;100104.25;5174266;28;20112;-72
2023/04/14 07:24:43;;;;;;;5.43;3.47;;;;;;;9.42;95.21;100100.25;5185184;28;20032;-73
2023/04/14 07:27:14;;;;;;;5.95;3.60;;;;;;;9.64;93.45;100103.75;5180022;28;20026;-69
2023/04/14 07:29:44;;;;;;;6.93;3.53;;;;;;;9.42;94.12;100103.72;5186140;28;20033;-72
2023/04/14 07:32:14;;;;;;;7.18;3.67;;;;;;;9.45;96.12;100092.34;5181449;28;20152;-72
2023/04/14 07:34:45;;;;;;;9.52;4.10;;;;;;;9.66;94.55;100097.53;5151289;28;20450;-71
2023/04/14 07:37:15;;;;;;;7.93;4.03;;;;;;;9.85;94.92;100102.91;5173590;28;20129;-72
2023/04/14 07:39:45;;;;;;;6.15;3.42;;;;;;;9.98;92.48;100104.09;5166247;28;20025;-73
2023/04/14 07:42:16;;;;;;;6.30;3.63;;;;;;;10.24;93.63;100111.75;5178550;28;20208;-73
2023/04/14 07:44:46;;;;;;;6.20;3.97;;;;;;;10.08;93.20;100110.66;5183872;28;20052;-72
2023/04/14 07:47:16;;;;;;;7.88;4.22;;;;;;;10.11;91.83;100106.19;5178594;28;20102;-72
2023/04/14 07:49:47;;;;;;;9.05;4.22;;;;;;;10.18;93.21;100114.63;5184863;28;20368;-71
2023/04/14 07:52:18;;;;;;;6.10;3.47;;;;;;;10.28;93.59;100113.28;5181338;28;20447;-74
2023/04/14 07:54:48;;;;;;;8.18;3.88;;;;;;;10.13;92.45;100119.19;5183763;28;20028;-69
2023/04/14 07:57:19;;;;;;;7.30;3.92;;;;;;;10.23;94.06;100112.66;5163759;28;20026;-72
2023/04/14 07:59:49;;;;;;;6.68;3.70;;;;;;;10.30;91.86;100106.25;5181841;28;20022;-72
2023/04/14 08:02:20;;;;;;;7.45;3.70;;;;;;;10.28;91.16;100105.47;5180243;28;20038;-69
2023/04/14 08:04:51;;;;;;;8.52;3.72;;;;;;;10.28;92.89;100108.06;5170382;28;20033;-71
2023/04/14 08:07:21;;;;;;;9.52;4.25;;;;;;;10.45;92.64;100103.84;5179368;28;20408;-72
2023/04/14 08:09:51;;;;;;;8.38;4.10;;;;;;;10.35;91.50;100104.31;5167267;28;20511;-73
2023/04/14 08:12:23;;;;;;;7.43;3.50;;;;;;;10.42;90.48;100100.50;5180626;28;20069;-74
2023/04/14 08:14:55;;;;;;;6.45;3.75;;;;;;;10.59;89.68;100098.91;5184795;28;20025;-72
2023/04/14 08:17:26;;;;;;;6.68;3.80;;;;;;;10.71;90.05;100100.13;5162672;28;20204;-69
2023/04/14 08:19:56;;;;;;;5.65;3.58;;;;;;;10.82;90.35;100097.91;5184862;28;20032;-72
2023/04/14 08:22:26;;;;;;;9.90;4.97;;;;;;;11.04;89.00;100096.84;5164702;28;20432;-73
2023/04/14 08:24:57;;;;;;;7.10;3.50;;;;;;;10.98;89.42;100093.66;5179235;28;20042;-73
2023/04/14 08:27:27;;;;;;;5.95;3.28;;;;;;;11.30;88.97;100096.53;5162670;28;20033;-71
2023/04/14 08:29:57;;;;;;;6.47;3.60;;;;;;;11.30;87.41;100105.22;5182449;28;20430;-71
2023/04/14 08:32:27;;;;;;;6.93;3.53;;;;;;;11.12;86.35;100099.97;5182182;28;20492;-72
2023/04/14 08:34:58;;;;;;;7.75;3.47;;;;;;;11.31;86.05;100100.84;5183689;28;20108;-71
2023/04/14 08:37:28;;;;;;;6.07;3.20;;;;;;;11.67;86.57;100100.00;5180048;28;20571;-73
2023/04/14 08:39:58;;;;;;;7.32;3.65;;;;;;;11.78;85.46;100102.13;5183593;28;20399;-72
2023/04/14 08:42:29;;;;;;;6.10;3.25;;;;;;;11.88;84.56;100101.59;5181068;28;20113;-73
2023/04/14 08:44:59;;;;;;;4.70;3.00;;;;;;;11.76;84.22;100106.56;5179387;28;20409;-72
2023/04/14 08:47:34;;;;;;;5.43;3.03;;;;;;;11.83;85.33;100107.97;5163475;28;20018;-72
2023/04/14 08:50:06;;;;;;;7.05;2.97;;;;;;;11.80;85.62;100110.75;5180948;28;20336;-72
2023/04/14 08:52:39;;;;;;;5.63;3.10;;;;;;;11.95;86.14;100118.69;5184010;28;20037;-73
2023/04/14 08:55:10;;;;;;;7.32;3.40;;;;;;;11.63;85.13;100118.53;5184226;28;20047;-72
2023/04/14 08:57:42;;;;;;;7.22;3.45;;;;;;;11.43;86.46;100111.56;5166966;28;20025;-72
2023/04/14 09:00:14;;;;;;;6.30;3.38;;;;;;;11.56;87.20;100102.28;5176669;28;20031;-72
2023/04/14 09:02:45;;;;;;;5.32;3.08;;;;;;;11.90;87.10;100104.97;5178863;28;20446;-71
2023/04/14 09:05:17;;;;;;;7.15;3.42;;;;;;;11.93;84.62;100099.59;5160394;28;20349;-74
2023/04/14 09:07:48;;;;;;;5.22;3.20;;;;;;;11.80;83.44;100095.88;5183957;28;20060;-70
2023/04/14 09:10:20;;;;;;;6.72;3.33;;;;;;;11.91;84.24;100090.97;5181548;28;20437;-73
2023/04/14 09:12:52;;;;;;;7.60;3.83;;;;;;;11.69;84.30;100092.06;5183747;28;20427;-72
2023/04/14 09:15:26;;;;;;;5.65;3.40;;;;;;;11.72;84.53;100091.91;5160962;28;20030;-73
2023/04/14 09:17:56;;;;;;;5.82;3.10;;;;;;;11.98;84.31;100084.50;5182854;28;20040;-71
2023/04/14 09:20:27;;;;;;;9.50;3.58;;;;;;;11.94;83.04;100080.34;5180756;28;20403;-69
2023/04/14 09:22:58;;;;;;;5.25;3.03;;;;;;;11.93;82.46;100083.88;5181893;28;20035;-72
2023/04/14 09:25:29;;;;;;;6.25;3.15;;;;;;;12.00;83.67;100085.28;5182532;28;20190;-72
2023/04/14 09:27:59;;;;;;;6.15;3.17;;;;;;;12.18;83.52;100081.75;5167567;28;20482;-73
2023/04/14 09:30:30;;;;;;;7.97;2.90;;;;;;;11.98;83.40;100081.03;5185420;28;20022;-73
2023/04/14 09:33:05;;;;;;;4.63;2.85;;;;;;;12.16;83.92;100082.75;5185106;28;20032;-72
2023/04/14 09:35:47;;;;;;;5.30;3.00;;;;;;;12.23;83.24;100082.38;5186670;28;20025;-72
2023/04/14 09:38:37;;;;;;;8.27;3.53;;;;;;;11.91;83.15;100085.72;5178287;28;20777;-72
2023/04/14 09:41:08;;;;;;;6.70;3.15;;;;;;;12.11;82.63;100080.34;5184891;28;20037;-71
2023/04/14 09:43:38;;;;;;;5.82;2.72;;;;;;;12.41;83.36;100077.97;5167367;28;20266;-73
2023/04/14 09:46:09;;;;;;;5.38;2.50;;;;;;;12.31;83.35;100077.56;5180794;28;20030;-72
2023/04/14 09:48:54;;;;;;;5.63;2.60;;;;;;;12.29;82.73;100076.81;5185598;28;20025;-72
2023/04/14 09:51:28;;;;;;;5.20;2.85;;;;;;;12.24;82.18;100091.94;5180145;28;20056;-72
2023/04/14 09:54:03;;;;;;;7.03;2.40;;;;;;;12.35;81.95;100078.28;5168495;28;20178;-71
2023/04/14 09:56:33;;;;;;;5.53;2.97;;;;;;;12.56;82.33;100085.91;5183898;28;20442;-72
2023/04/14 09:59:03;;;;;;;5.80;3.17;;;;;;;12.47;82.04;100088.97;5164280;28;20045;-71
2023/04/14 10:01:35;;;;;;;6.15;3.08;;;;;;;12.38;82.86;100084.22;5185089;28;20128;-72
2023/04/14 10:04:20;;;;;;;7.35;3.35;;;;;;;12.77;82.74;100081.34;5182848;28;20504;-73
2023/04/14 10:06:55;;;;;;;4.72;3.00;;;;;;;12.86;82.23;100073.84;5177337;28;20032;-72
2023/04/14 10:09:27;;;;;;;5.43;3.25;;;;;;;12.89;80.35;100077.13;5176683;28;20026;-71
2023/04/14 10:12:12;;;;;;;5.55;2.80;;;;;;;12.91;80.21;100077.06;5162949;28;20017;-70
2023/04/14 10:14:43;;;;;;;10.25;3.60;;;;;;;13.04;80.74;100080.75;5188846;28;20033;-73
2023/04/14 10:17:13;;;;;;;6.15;3.28;;;;;;;12.70;80.98;100080.81;5182359;28;20032;-72
2023/04/14 10:19:44;;;;;;;9.88;3.67;;;;;;;12.29;84.40;100074.19;5178514;28;20026;-72
2023/04/14 10:22:16;;;;;;;8.55;3.72;;;;;;;12.32;83.78;100075.81;5178443;28;20026;-72
2023/04/14 10:24:48;;;;;;;5.57;3.30;;;;;;;11.87;86.87;100080.72;5186715;28;20037;-74
2023/04/14 10:27:19;;;;;;;8.75;3.70;;;;;;;11.79;85.45;100077.63;5163994;28;20026;-72
2023/04/14 10:29:50;;;;;;;8.68;3.47;;;;;;;12.26;83.92;100076.16;5186478;28;20664;-73
2023/04/14 10:32:22;;;;;;;7.80;3.47;;;;;;;11.92;86.51;100070.88;5181906;28;20181;-72
2023/04/14 10:35:00;;;;;;;6.68;3.35;;;;;;;12.32;86.46;100068.78;5168313;28;20025;-73
2023/04/14 10:37:32;;;;;;;6.57;3.70;;;;;;;12.25;84.65;100062.19;5160258;28;20392;-70
2023/04/14 10:40:05;;;;;;;5.38;3.20;;;;;;;12.48;84.49;100063.63;5152855;28;20495;-71
2023/04/14 10:42:53;;;;;;;6.07;3.13;;;;;;;12.64;84.56;100065.38;5176138;28;20084;-74
2023/04/14 10:45:23;;;;;;;6.75;3.40;;;;;;;12.61;84.19;100064.72;5164296;28;20108;-71
2023/04/14 10:47:54;;;;;;;6.18;3.30;;;;;;;12.87;82.94;100057.16;5174993;28;20124;-72
2023/04/14 10:50:25;;;;;;;5.15;3.10;;;;;;;13.15;82.58;100063.50;5178568;28;20014;-71
2023/04/14 10:52:57;;;;;;;7.82;3.60;;;;;;;13.34;80.94;100056.31;5179496;28;20083;-70
2023/04/14 10:55:28;;;;;;;10.27;3.50;;;;;;;12.97;82.01;100058.38;5177842;28;20053;-70
2023/04/14 10:58:07;;;;;;;6.28;3.15;;;;;;;12.78;83.52;100047.16;5170758;28;20517;-71
2023/04/14 11:00:38;;;;;;;5.97;3.17;;;;;;;13.18;82.70;100051.97;5189839;28;20046;-73
2023/04/14 11:03:10;;;;;;;4.50;2.65;;;;;;;12.90;83.16;100049.13;5161246;28;20144;-73
2023/04/14 11:05:42;;;;;;;3.08;1.90;;;;;;;12.42;84.18;100053.44;5179821;28;20229;-72
2023/04/14 11:08:23;;;;;;;2.35;1.60;;;;;;;12.29;83.80;100053.22;5158298;28;20282;-72
2023/04/14 11:11:05;;;;;;;4.57;1.52;;;;;;;12.54;81.25;100042.34;5181646;28;20114;-72
2023/04/14 11:13:37;;;;;;;3.88;1.58;;;;;;;12.67;80.73;100052.09;5186165;28;20075;-73
2023/04/14 11:16:08;;;;;;;3.88;1.70;;;;;;;12.88;80.60;100058.00;5179882;28;20466;-72
2023/04/14 11:18:41;;;;;;;5.05;1.85;;;;;;;13.01;80.59;100054.66;5161306;28;20057;-73
2023/04/14 11:21:14;;;;;;;4.38;1.88;;;;;;;12.81;82.23;100052.22;5186239;28;20075;-74
2023/04/14 11:23:45;;;;;;;3.35;2.10;;;;;;;12.33;84.60;100065.25;5174740;28;20104;-73
2023/04/14 11:26:16;;;;;;;7.03;2.33;;;;;;;12.36;85.54;100065.13;5181753;28;20049;-73
2023/04/14 11:28:46;;;;;;;4.72;2.22;;;;;;;12.60;84.95;100061.22;5188236;28;20334;-72
2023/04/14 11:31:17;;;;;;;4.10;2.15;;;;;;;12.75;83.39;100062.19;5182223;28;20026;-72
2023/04/14 11:33:48;;;;;;;3.53;2.15;;;;;;;12.78;82.17;100056.81;5169261;28;20029;-71
2023/04/14 11:36:18;;;;;;;3.83;2.33;;;;;;;12.85;84.94;100053.75;5162897;28;20384;-74
2023/04/14 11:38:48;;;;;;;6.30;2.58;;;;;;;12.40;85.76;100061.41;5161615;28;20034;-72
2023/04/14 11:41:20;;;;;;;6.13;2.70;;;;;;;12.43;86.37;100060.41;5177221;28;20384;-72
2023/04/14 11:43:50;;;;;;;4.35;2.35;;;;;;;12.61;85.93;100057.66;5183861;28;20044;-72
2023/04/14 11:46:21;;;;;;;3.65;2.10;;;;;;;12.98;82.99;100067.94;5179441;28;20066;-72
2023/04/14 11:48:55;;;;;;;5.53;2.25;;;;;;;13.07;81.50;100065.69;5181275;28;20511;-71
2023/04/14 11:51:31;;;;;;;3.53;2.10;;;;;;;12.76;82.43;100054.25;5174925;28;20032;-74